Time;durP1;ratioP1;P1;durP2;ratioP2;P2;SDS_P1;SDS_P2;PMS_P1;PMS_P2;Temp;Humidity;BMP_temperature;BMP_pressure;BME280_temperature;BME280_humidity;BME280_pressure;Samples;Min_cycle;Max_cycle;Signal;HPM_P1;HPM_P2
2023/03/07 00:02:16;;;;;;;21.67;9.27;;;;;;;2.47;100.00;99792.91;5075132;28;20103;-68
2023/03/07 00:04:45;;;;;;;20.50;7.80;;;;;;;2.42;100.00;99795.41;5074899;28;20501;-69
2023/03/07 00:07:10;;;;;;;19.80;7.35;;;;;;;2.37;100.00;99794.44;5071048;28;20032;-66
2023/03/07 00:09:36;;;;;;;18.98;6.82;;;;;;;2.34;100.00;99797.84;5074946;28;20036;-67
2023/03/07 00:12:01;;;;;;;19.85;6.50;;;;;;;2.35;100.00;99790.91;5074614;28;20033;-67
2023/03/07 00:14:27;;;;;;;17.70;5.65;;;;;;;2.28;100.00;99789.91;5074814;28;20111;-68
2023/03/07 00:16:52;;;;;;;17.35;5.00;;;;;;;2.21;100.00;99796.72;5075004;28;20043;-65
2023/03/07 00:19:17;;;;;;;16.38;4.70;;;;;;;2.12;100.00;99780.88;5074659;28;20387;-66
2023/03/07 00:21:43;;;;;;;14.05;4.40;;;;;;;2.00;100.00;99786.69;5074574;28;20068;-66
2023/03/07 00:24:09;;;;;;;14.15;4.18;;;;;;;1.95;100.00;99784.84;5070651;28;20025;-67
2023/03/07 00:26:38;;;;;;;14.13;4.22;;;;;;;1.93;100.00;99776.97;5074371;28;20029;-66
2023/03/07 00:29:05;;;;;;;11.85;3.90;;;;;;;1.90;100.00;99772.56;5074370;28;20047;-65
2023/03/07 00:31:30;;;;;;;11.77;4.10;;;;;;;1.86;100.00;99777.69;5074554;28;20025;-68
2023/03/07 00:33:56;;;;;;;12.38;3.90;;;;;;;1.85;100.00;99766.41;5072755;28;20056;-69
2023/03/07 00:36:22;;;;;;;12.70;4.00;;;;;;;1.84;100.00;99763.75;5074254;28;20104;-68
2023/03/07 00:38:48;;;;;;;14.23;4.00;;;;;;;1.85;100.00;99770.69;5074363;28;20033;-68
2023/03/07 00:41:19;;;;;;;14.20;3.92;;;;;;;1.91;100.00;99769.13;5074131;28;20078;-69
2023/03/07 00:43:48;;;;;;;14.02;3.97;;;;;;;1.94;100.00;99764.81;5074074;28;20029;-69
2023/03/07 00:46:15;;;;;;;11.90;3.55;;;;;;;1.98;100.00;99764.03;5074024;28;20066;-68
2023/03/07 00:48:41;;;;;;;13.43;3.80;;;;;;;1.97;100.00;99755.34;5074012;28;20043;-68
2023/03/07 00:51:10;;;;;;;12.77;3.70;;;;;;;1.97;100.00;99755.34;5073886;28;20028;-69
2023/03/07 00:53:35;;;;;;;15.35;3.78;;;;;;;2.01;100.00;99753.69;5074023;28;20107;-68
2023/03/07 00:56:04;;;;;;;13.55;3.80;;;;;;;2.04;100.00;99765.06;5073843;28;20112;-68
2023/03/07 00:58:31;;;;;;;14.57;4.07;;;;;;;2.03;100.00;99760.69;5073558;28;20021;-68
2023/03/07 01:00:58;;;;;;;15.18;4.25;;;;;;;2.05;100.00;99756.41;5073801;28;20028;-69
2023/03/07 01:03:24;;;;;;;16.17;4.50;;;;;;;2.07;100.00;99757.31;5073698;28;20241;-69
2023/03/07 01:05:50;;;;;;;18.20;5.00;;;;;;;2.08;100.00;99752.97;5073572;28;20533;-68
2023/03/07 01:08:16;;;;;;;16.52;4.72;;;;;;;2.08;100.00;99750.34;5073717;28;20033;-66
2023/03/07 01:10:42;;;;;;;19.40;5.72;;;;;;;2.18;100.00;99743.63;5073546;28;20024;-72
2023/03/07 01:13:08;;;;;;;18.73;5.53;;;;;;;2.20;100.00;99752.34;5073451;28;20033;-67
2023/03/07 01:15:35;;;;;;;18.77;5.68;;;;;;;2.16;100.00;99740.09;5073582;28;20031;-67
2023/03/07 01:18:00;;;;;;;18.98;5.95;;;;;;;2.16;100.00;99743.59;5073416;28;20029;-67
2023/03/07 01:20:26;;;;;;;19.23;6.50;;;;;;;2.18;100.00;99743.63;5073325;28;20082;-70
2023/03/07 01:22:51;;;;;;;18.98;6.60;;;;;;;2.23;100.00;99742.00;5073408;28;20474;-66
2023/03/07 01:25:16;;;;;;;19.27;6.72;;;;;;;2.21;100.00;99738.47;5073266;28;20467;-66
2023/03/07 01:27:42;;;;;;;19.50;6.78;;;;;;;2.22;100.00;99741.09;5072221;28;20131;-67
2023/03/07 01:30:08;;;;;;;19.40;7.25;;;;;;;2.26;100.00;99739.44;5073567;28;20104;-65
2023/03/07 01:32:33;;;;;;;19.50;7.20;;;;;;;2.23;100.00;99729.81;5072749;28;20040;-65
2023/03/07 01:34:59;;;;;;;19.92;7.57;;;;;;;2.23;100.00;99731.56;5073209;28;20031;-68
2023/03/07 01:37:24;;;;;;;20.67;7.93;;;;;;;2.24;100.00;99728.09;5073211;28;20028;-64
2023/03/07 01:39:53;;;;;;;21.48;9.00;;;;;;;2.26;100.00;99732.50;5072991;28;20025;-66
2023/03/07 01:42:20;;;;;;;21.83;8.93;;;;;;;2.27;100.00;99725.53;5073079;28;20115;-65
2023/03/07 01:45:04;;;;;;;21.60;9.18;;;;;;;2.29;100.00;99716.03;5072297;28;20055;-66
2023/03/07 01:47:30;;;;;;;22.65;9.60;;;;;;;2.31;100.00;99714.31;5072761;28;20025;-66
2023/03/07 01:49:57;;;;;;;21.88;9.13;;;;;;;2.32;100.00;99715.22;5072810;28;20028;-66
2023/03/07 01:52:30;;;;;;;23.17;10.13;;;;;;;2.33;100.00;99715.25;5072945;28;20040;-68
2023/03/07 01:55:09;;;;;;;22.98;10.57;;;;;;;2.42;100.00;99712.81;5073220;28;20107;-65
2023/03/07 01:57:38;;;;;;;23.45;11.13;;;;;;;2.41;100.00;99703.22;5072616;28;20028;-72
2023/03/07 02:00:10;;;;;;;24.55;11.52;;;;;;;2.40;100.00;99711.91;5072729;28;20446;-65
2023/03/07 02:02:39;;;;;;;25.55;11.90;;;;;;;2.37;100.00;99706.59;5072925;28;20021;-67
2023/03/07 02:05:20;;;;;;;25.88;12.55;;;;;;;2.37;100.00;99704.00;5072880;28;20032;-69
2023/03/07 02:07:48;;;;;;;25.50;12.25;;;;;;;2.35;100.00;99700.50;5069579;28;20029;-69
2023/03/07 02:10:15;;;;;;;24.98;12.20;;;;;;;2.38;100.00;99702.28;5072685;28;20383;-69
2023/03/07 02:12:41;;;;;;;25.63;11.75;;;;;;;2.35;100.00;99697.03;5068744;28;20025;-68
2023/03/07 02:15:11;;;;;;;25.67;12.07;;;;;;;2.35;100.00;99687.44;5072838;28;20036;-68
2023/03/07 02:17:41;;;;;;;25.77;12.15;;;;;;;2.32;100.00;99690.00;5072617;28;20074;-68
2023/03/07 02:20:39;;;;;;;25.20;12.07;;;;;;;2.30;100.00;99696.03;5072533;28;20033;-68
2023/03/07 02:23:07;;;;;;;25.15;12.25;;;;;;;2.30;100.00;99686.50;5071811;28;20111;-69
2023/03/07 02:25:54;;;;;;;25.20;11.77;;;;;;;2.29;100.00;99700.38;5072699;28;20437;-68
2023/03/07 02:28:20;;;;;;;25.40;11.40;;;;;;;2.28;100.00;99688.19;5070068;28;20082;-69
2023/03/07 02:31:00;;;;;;;24.70;10.95;;;;;;;2.28;100.00;99687.31;5072924;28;20044;-68
2023/03/07 02:33:27;;;;;;;24.50;10.93;;;;;;;2.27;100.00;99681.19;5072663;28;20025;-69
2023/03/07 02:36:04;;;;;;;24.48;10.50;;;;;;;2.26;100.00;99676.84;5072379;28;20050;-68
2023/03/07 02:38:35;;;;;;;23.60;9.98;;;;;;;2.24;100.00;99674.22;5072457;28;20029;-68
2023/03/07 02:41:01;;;;;;;23.45;10.20;;;;;;;2.21;100.00;99670.66;5072394;28;20531;-68
2023/03/07 02:43:26;;;;;;;23.23;9.57;;;;;;;2.19;100.00;99664.53;5072580;28;20111;-68
2023/03/07 02:45:52;;;;;;;23.70;10.02;;;;;;;2.18;100.00;99662.78;5072294;28;20079;-69
2023/03/07 02:48:17;;;;;;;24.27;10.27;;;;;;;2.21;100.00;99663.72;5072321;28;20410;-68
2023/03/07 02:50:42;;;;;;;24.08;9.80;;;;;;;2.18;100.00;99665.38;5072532;28;20025;-69
2023/03/07 02:53:08;;;;;;;23.60;9.65;;;;;;;2.18;100.00;99662.78;5072444;28;20028;-69
2023/03/07 02:55:33;;;;;;;23.85;9.57;;;;;;;2.17;100.00;99666.22;5072523;28;20116;-68
2023/03/07 02:57:58;;;;;;;24.67;10.10;;;;;;;2.15;100.00;99665.31;5076090;28;20472;-68
2023/03/07 03:00:24;;;;;;;25.73;10.13;;;;;;;2.15;100.00;99662.72;5076009;28;20024;-68
2023/03/07 03:02:50;;;;;;;24.58;10.07;;;;;;;2.15;100.00;99660.13;5076356;28;20029;-68
2023/03/07 03:05:15;;;;;;;24.58;10.00;;;;;;;2.15;100.00;99654.91;5075987;28;20472;-68
2023/03/07 03:07:40;;;;;;;24.67;10.05;;;;;;;2.16;100.00;99656.66;5076039;28;20037;-68
2023/03/07 03:10:06;;;;;;;23.60;10.02;;;;;;;2.15;100.00;99660.97;5076085;28;20028;-68
2023/03/07 03:12:32;;;;;;;24.10;9.85;;;;;;;2.13;100.00;99654.00;5075800;28;20032;-68
2023/03/07 03:14:57;;;;;;;24.05;9.75;;;;;;;2.12;100.00;99662.66;5075843;28;20112;-68
2023/03/07 03:17:22;;;;;;;24.58;9.70;;;;;;;2.12;100.00;99676.56;5075967;28;20032;-66
2023/03/07 03:19:48;;;;;;;24.02;10.05;;;;;;;2.12;100.00;99660.94;5075741;28;20028;-67
2023/03/07 03:22:13;;;;;;;25.10;10.32;;;;;;;2.13;100.00;99656.63;5075934;28;20456;-69
2023/03/07 03:24:41;;;;;;;24.42;10.30;;;;;;;2.14;100.00;99655.75;5075584;28;20383;-67
2023/03/07 03:27:08;;;;;;;24.38;10.68;;;;;;;2.14;100.00;99658.34;5075472;28;20028;-67
2023/03/07 03:29:33;;;;;;;25.60;10.55;;;;;;;2.12;100.00;99654.84;5075786;28;20464;-67
2023/03/07 03:31:59;;;;;;;25.08;10.60;;;;;;;2.11;100.00;99653.94;5075537;28;20032;-66
2023/03/07 03:34:24;;;;;;;26.10;10.95;;;;;;;2.08;100.00;99654.78;5075711;28;20036;-66
2023/03/07 03:36:50;;;;;;;25.60;11.38;;;;;;;2.10;100.00;99652.22;5075641;28;20119;-67
2023/03/07 03:39:15;;;;;;;26.63;11.90;;;;;;;2.11;100.00;99648.72;5075372;28;20043;-67
2023/03/07 03:41:41;;;;;;;26.20;11.20;;;;;;;2.12;100.00;99654.84;5071281;28;20025;-67
2023/03/07 03:44:07;;;;;;;26.23;12.25;;;;;;;2.11;100.00;99647.84;5075194;28;20509;-68
2023/03/07 03:46:33;;;;;;;27.85;12.38;;;;;;;2.11;100.00;99637.44;5075271;28;20486;-68
2023/03/07 03:48:58;;;;;;;26.48;11.88;;;;;;;2.09;100.00;99643.47;5075245;28;20037;-67
2023/03/07 03:51:24;;;;;;;25.77;11.38;;;;;;;2.08;100.00;99635.63;5075425;28;20029;-68
2023/03/07 03:53:50;;;;;;;23.50;10.18;;;;;;;2.00;100.00;99630.28;5075213;28;20036;-67
2023/03/07 03:56:18;;;;;;;23.83;10.23;;;;;;;1.97;100.00;99627.63;5077079;28;20103;-67
2023/03/07 03:58:50;;;;;;;23.05;9.40;;;;;;;1.95;100.00;99621.47;5075615;28;20082;-67
2023/03/07 04:01:17;;;;;;;23.17;9.50;;;;;;;1.94;100.00;99622.34;5076242;28;20033;-67
2023/03/07 04:03:46;;;;;;;23.25;9.90;;;;;;;1.96;100.00;99617.16;5079390;28;20032;-68
2023/03/07 04:06:18;;;;;;;25.25;10.63;;;;;;;1.96;100.00;99612.81;5073409;28;20103;-67
2023/03/07 04:08:43;;;;;;;24.10;10.82;;;;;;;1.97;100.00;99611.97;5073567;28;20111;-67
2023/03/07 04:11:09;;;;;;;25.65;11.23;;;;;;;1.97;100.00;99614.59;5077115;28;20120;-68
2023/03/07 04:13:35;;;;;;;25.92;11.63;;;;;;;1.98;100.00;99610.25;5076010;28;20037;-67
2023/03/07 04:16:01;;;;;;;24.83;10.75;;;;;;;1.98;100.00;99600.72;5074904;28;20486;-68
2023/03/07 04:18:27;;;;;;;24.70;10.70;;;;;;;1.99;100.00;99596.38;5075042;28;20020;-67
2023/03/07 04:20:53;;;;;;;23.90;11.15;;;;;;;2.00;100.00;99596.38;5074745;28;20361;-67
2023/03/07 04:23:20;;;;;;;23.95;10.15;;;;;;;2.00;100.00;99588.56;5074570;28;20085;-69
2023/03/07 04:25:54;;;;;;;24.00;10.52;;;;;;;2.01;100.00;99589.44;5074849;28;20045;-69
2023/03/07 04:28:20;;;;;;;23.83;9.70;;;;;;;2.00;100.00;99582.50;5071646;28;20582;-68
2023/03/07 04:30:48;;;;;;;24.35;10.45;;;;;;;2.01;100.00;99585.13;5074512;28;20090;-68
2023/03/07 04:33:15;;;;;;;23.23;10.02;;;;;;;1.99;100.00;99585.94;5074365;28;20036;-68
2023/03/07 04:35:40;;;;;;;23.20;8.98;;;;;;;2.02;100.00;99581.66;5074252;28;20081;-69
2023/03/07 04:38:06;;;;;;;23.85;9.57;;;;;;;2.00;100.00;99585.97;5074454;28;20029;-68
2023/03/07 04:40:33;;;;;;;21.50;8.75;;;;;;;1.99;100.00;99567.69;5074234;28;20078;-68
2023/03/07 04:42:58;;;;;;;22.38;9.07;;;;;;;2.00;100.00;99577.28;5074203;28;20039;-68
2023/03/07 04:45:24;;;;;;;22.48;8.85;;;;;;;1.97;100.00;99567.66;5074228;28;20041;-68
2023/03/07 04:47:49;;;;;;;22.63;9.18;;;;;;;1.97;100.00;99567.66;5074245;28;20033;-68
2023/03/07 04:50:19;;;;;;;23.23;9.43;;;;;;;1.97;100.00;99559.84;5074208;28;20391;-68
2023/03/07 04:52:45;;;;;;;24.15;9.90;;;;;;;1.96;100.00;99565.91;5070654;28;20032;-68
2023/03/07 04:55:10;;;;;;;23.10;9.65;;;;;;;1.96;100.00;99565.03;5074010;28;20090;-68
2023/03/07 04:57:36;;;;;;;23.48;9.80;;;;;;;1.94;100.00;99557.19;5073761;28;20606;-68
2023/03/07 05:00:02;;;;;;;24.05;10.23;;;;;;;1.96;100.00;99565.03;5074024;28;20024;-68
2023/03/07 05:02:27;;;;;;;24.80;9.75;;;;;;;1.96;100.00;99559.81;5073803;28;20103;-68
2023/03/07 05:04:53;;;;;;;24.65;9.80;;;;;;;1.96;100.00;99557.22;5073989;28;20162;-68
2023/03/07 05:07:18;;;;;;;24.65;9.93;;;;;;;1.98;100.00;99552.88;5073597;28;20036;-68
2023/03/07 05:09:43;;;;;;;23.85;10.20;;;;;;;1.97;100.00;99566.78;5073680;28;20033;-73
2023/03/07 05:12:09;;;;;;;25.85;10.63;;;;;;;1.95;100.00;99565.88;5073764;28;20099;-70
2023/03/07 05:14:34;;;;;;;24.48;9.95;;;;;;;1.93;100.00;99558.03;5073569;28;20074;-68
2023/03/07 05:16:59;;;;;;;25.63;11.43;;;;;;;1.91;100.00;99554.53;5073450;28;20471;-68
2023/03/07 05:19:25;;;;;;;25.27;10.80;;;;;;;1.89;100.00;99554.50;5072837;28;20475;-69
2023/03/07 05:21:51;;;;;;;26.05;10.70;;;;;;;1.87;100.00;99552.69;5073385;28;20424;-70
2023/03/07 05:24:16;;;;;;;25.55;10.45;;;;;;;1.85;100.00;99557.00;5073351;28;20495;-69
2023/03/07 05:26:42;;;;;;;27.17;11.40;;;;;;;1.82;100.00;99546.50;5069710;28;20482;-69
2023/03/07 05:29:07;;;;;;;25.42;11.00;;;;;;;1.82;100.00;99538.69;5073261;28;20024;-71
2023/03/07 05:31:32;;;;;;;25.55;10.82;;;;;;;1.80;100.00;99533.44;5073194;28;20025;-69
2023/03/07 05:33:58;;;;;;;25.92;10.93;;;;;;;1.82;100.00;99534.38;5072127;28;20029;-68
2023/03/07 05:36:23;;;;;;;26.65;11.27;;;;;;;1.84;100.00;99529.19;5073123;28;20036;-68
2023/03/07 05:38:49;;;;;;;24.85;10.52;;;;;;;1.86;100.00;99530.94;5073270;28;20029;-68
2023/03/07 05:41:14;;;;;;;27.10;11.18;;;;;;;1.88;100.00;99534.50;5073111;28;20025;-68
2023/03/07 05:43:39;;;;;;;26.90;11.25;;;;;;;1.89;100.00;99528.44;5072983;28;20028;-69
2023/03/07 05:46:05;;;;;;;27.55;11.75;;;;;;;1.93;100.00;99529.34;5073059;28;20045;-68
2023/03/07 05:48:30;;;;;;;27.88;11.80;;;;;;;1.93;100.00;99539.78;5072781;28;20390;-69
2023/03/07 05:51:02;;;;;;;26.45;11.70;;;;;;;1.96;100.00;99542.44;5072924;28;20386;-67
2023/03/07 05:53:27;;;;;;;27.58;11.25;;;;;;;1.99;100.00;99536.41;5071883;28;20032;-67
2023/03/07 05:55:52;;;;;;;28.88;12.18;;;;;;;1.97;100.00;99527.69;5072833;28;20391;-68
2023/03/07 05:58:18;;;;;;;28.58;11.38;;;;;;;1.96;100.00;99529.41;5072706;28;20086;-68
2023/03/07 06:00:43;;;;;;;29.23;12.43;;;;;;;1.98;100.00;99530.34;5073018;28;20025;-68
2023/03/07 06:03:08;;;;;;;28.73;12.32;;;;;;;1.99;100.00;99524.25;5072738;28;20029;-67
2023/03/07 06:05:34;;;;;;;28.83;12.30;;;;;;;1.99;100.00;99518.16;5072668;28;20107;-68
2023/03/07 06:07:59;;;;;;;28.45;12.23;;;;;;;1.99;100.00;99526.84;5072902;28;20071;-67
2023/03/07 06:10:25;;;;;;;28.48;12.40;;;;;;;2.00;100.00;99530.34;5072666;28;20060;-68
2023/03/07 06:12:53;;;;;;;28.60;11.80;;;;;;;2.02;100.00;99523.44;5072629;28;20059;-68
2023/03/07 06:15:20;;;;;;;26.60;11.45;;;;;;;1.98;100.00;99529.44;5072709;28;20033;-68
2023/03/07 06:17:46;;;;;;;28.42;11.23;;;;;;;1.93;100.00;99529.34;5072694;28;20029;-67
2023/03/07 06:20:11;;;;;;;26.00;10.73;;;;;;;1.99;100.00;99532.06;5072576;28;20030;-68
2023/03/07 06:22:37;;;;;;;23.70;9.18;;;;;;;1.88;100.00;99526.66;5072683;28;20033;-67
2023/03/07 06:25:04;;;;;;;21.15;7.70;;;;;;;1.83;100.00;99527.44;5072722;28;20040;-67
2023/03/07 06:27:34;;;;;;;21.50;7.85;;;;;;;1.59;100.00;99533.94;5072482;28;20028;-67
2023/03/07 06:30:00;;;;;;;20.88;7.25;;;;;;;1.68;100.00;99535.84;5072899;28;20379;-67
2023/03/07 06:32:25;;;;;;;21.42;7.75;;;;;;;1.46;100.00;99542.34;5078523;28;20069;-67
2023/03/07 06:34:50;;;;;;;20.92;7.72;;;;;;;1.41;100.00;99549.19;5079154;28;20048;-67
2023/03/07 06:37:16;;;;;;;21.58;8.13;;;;;;;1.34;100.00;99549.06;5079234;28;20103;-68
2023/03/07 06:39:41;;;;;;;19.70;6.90;;;;;;;1.25;100.00;99546.25;5079097;28;20024;-68
2023/03/07 06:42:07;;;;;;;21.60;8.10;;;;;;;1.09;100.00;99538.97;5078884;28;20032;-68
2023/03/07 06:44:32;;;;;;;22.27;8.70;;;;;;;1.00;100.00;99535.28;5079163;28;20055;-68
2023/03/07 06:46:57;;;;;;;22.80;8.75;;;;;;;1.01;100.00;99541.41;5078882;28;20056;-68
2023/03/07 06:49:23;;;;;;;21.80;8.70;;;;;;;0.96;100.00;99527.41;5079193;28;20037;-68
2023/03/07 06:51:48;;;;;;;23.70;9.05;;;;;;;0.88;100.00;99528.97;5075279;28;20082;-68
2023/03/07 06:54:13;;;;;;;23.15;9.65;;;;;;;0.80;100.00;99537.47;5073759;28;20491;-68
2023/03/07 06:56:39;;;;;;;23.00;9.60;;;;;;;0.78;100.00;99538.28;5078051;28;20043;-68
2023/03/07 06:59:04;;;;;;;24.70;9.82;;;;;;;0.78;100.00;99546.09;5072850;28;20028;-67
2023/03/07 07:01:30;;;;;;;25.30;10.13;;;;;;;0.80;100.00;99544.38;5075074;28;20031;-69
2023/03/07 07:03:55;;;;;;;25.13;10.05;;;;;;;0.79;100.00;99553.91;5074227;28;20040;-69
2023/03/07 07:06:21;;;;;;;24.05;9.75;;;;;;;0.77;100.00;99550.41;5080858;28;20031;-69
2023/03/07 07:08:46;;;;;;;22.88;9.80;;;;;;;0.78;100.00;99561.69;5076754;28;20032;-69
2023/03/07 07:11:11;;;;;;;24.02;9.80;;;;;;;0.67;100.00;99549.31;5076729;28;20115;-68
2023/03/07 07:13:37;;;;;;;25.02;10.27;;;;;;;0.68;100.00;99553.69;5079379;28;20505;-68
2023/03/07 07:16:04;;;;;;;23.08;9.68;;;;;;;0.64;100.00;99550.94;5080267;28;20036;-70
2023/03/07 07:18:30;;;;;;;24.38;10.13;;;;;;;0.59;100.00;99545.66;5079947;28;20025;-70
2023/03/07 07:20:56;;;;;;;25.52;10.75;;;;;;;0.54;100.00;99544.66;5072883;28;20547;-68
2023/03/07 07:23:21;;;;;;;23.85;10.68;;;;;;;0.32;100.00;99538.94;5078707;28;20475;-70
2023/03/07 07:25:46;;;;;;;23.52;9.75;;;;;;;0.21;100.00;99536.91;5077443;28;20032;-69
2023/03/07 07:28:12;;;;;;;24.17;10.30;;;;;;;0.05;100.00;99536.50;5073992;28;20036;-68
2023/03/07 07:30:37;;;;;;;24.50;10.50;;;;;;;-0.05;100.00;99548.38;5074187;28;20459;-68
2023/03/07 07:33:02;;;;;;;25.15;10.60;;;;;;;-0.05;100.00;99545.78;5074915;28;20032;-69
2023/03/07 07:35:28;;;;;;;26.55;10.73;;;;;;;-0.05;100.00;99561.38;5073551;28;20395;-67
2023/03/07 07:37:53;;;;;;;24.95;10.32;;;;;;;0.04;100.00;99565.94;5075134;28;20035;-70
2023/03/07 07:40:19;;;;;;;26.38;11.55;;;;;;;-0.06;100.00;99580.41;5073593;28;20032;-70
2023/03/07 07:42:53;;;;;;;26.48;11.45;;;;;;;-0.04;100.00;99591.72;5069538;28;20029;-68
2023/03/07 07:45:21;;;;;;;26.63;11.20;;;;;;;-0.14;100.00;99586.25;5066368;28;20045;-68
2023/03/07 07:47:48;;;;;;;28.90;11.82;;;;;;;-0.26;100.00;99598.06;5077480;28;20067;-69
2023/03/07 07:50:18;;;;;;;27.98;12.45;;;;;;;-0.34;100.00;99594.34;5070428;28;20024;-68
2023/03/07 07:52:43;;;;;;;27.95;12.25;;;;;;;-0.34;100.00;99606.47;5068193;28;20506;-68
2023/03/07 07:55:09;;;;;;;28.83;12.77;;;;;;;-0.30;100.00;99608.31;5069977;28;20021;-69
2023/03/07 07:57:35;;;;;;;27.95;12.35;;;;;;;-0.29;100.00;99612.66;5066998;28;20083;-69
2023/03/07 08:00:03;;;;;;;27.90;12.73;;;;;;;-0.25;100.00;99605.00;5080487;28;20024;-68
2023/03/07 08:02:29;;;;;;;31.55;13.52;;;;;;;-0.09;100.00;99595.03;5073402;28;20040;-67
2023/03/07 08:04:54;;;;;;;30.38;13.40;;;;;;;0.01;100.00;99591.84;5070025;28;20835;-67
2023/03/07 08:07:20;;;;;;;29.85;13.05;;;;;;;-0.04;100.00;99596.06;5069434;28;20036;-69
2023/03/07 08:09:45;;;;;;;32.13;13.73;;;;;;;0.06;100.00;99599.75;5072630;28;20090;-67
2023/03/07 08:12:11;;;;;;;30.13;13.77;;;;;;;0.10;100.00;99612.91;5071364;28;20531;-67
2023/03/07 08:14:37;;;;;;;28.95;13.60;;;;;;;0.07;100.00;99607.59;5072656;28;20360;-67
2023/03/07 08:17:03;;;;;;;30.10;13.43;;;;;;;0.06;100.00;99607.56;5076154;28;20025;-68
2023/03/07 08:19:29;;;;;;;30.73;14.02;;;;;;;0.10;100.00;99612.91;5071047;28;20119;-67
2023/03/07 08:21:54;;;;;;;31.83;14.27;;;;;;;0.12;100.00;99623.34;5070290;28;20416;-67
2023/03/07 08:24:20;;;;;;;30.73;14.82;;;;;;;0.11;100.00;99624.16;5071489;28;20025;-67
2023/03/07 08:26:45;;;;;;;31.30;15.93;;;;;;;0.08;100.00;99618.88;5070160;28;20063;-67
2023/03/07 08:29:11;;;;;;;30.73;15.98;;;;;;;0.23;100.00;99623.59;5064512;28;20392;-69
2023/03/07 08:31:36;;;;;;;32.45;17.15;;;;;;;0.26;100.00;99624.59;5065586;28;20033;-69
2023/03/07 08:34:01;;;;;;;33.60;17.42;;;;;;;0.31;100.00;99635.09;5066507;28;20060;-68
2023/03/07 08:36:27;;;;;;;29.98;15.13;;;;;;;0.40;100.00;99621.47;5065706;28;20032;-68
2023/03/07 08:38:52;;;;;;;31.17;15.80;;;;;;;0.31;100.00;99643.75;5073100;28;20475;-69
2023/03/07 08:41:19;;;;;;;31.52;16.23;;;;;;;0.32;100.00;99619.53;5074784;28;20029;-68
2023/03/07 08:43:45;;;;;;;31.17;16.38;;;;;;;0.28;100.00;99635.91;5072305;28;20025;-69
2023/03/07 08:46:10;;;;;;;31.27;17.00;;;;;;;0.37;100.00;99616.19;5069512;28;20496;-69
2023/03/07 08:48:36;;;;;;;32.22;17.27;;;;;;;0.34;100.00;99632.56;5071680;28;20039;-69
2023/03/07 08:51:14;;;;;;;32.17;17.92;;;;;;;0.25;100.00;99629.72;5068228;28;20040;-69
2023/03/07 08:53:41;;;;;;;33.35;17.77;;;;;;;0.41;100.00;99624.09;5063710;28;20029;-68
2023/03/07 08:56:09;;;;;;;35.03;20.23;;;;;;;0.56;100.00;99628.81;5068090;28;20081;-68
2023/03/07 08:58:35;;;;;;;34.80;20.20;;;;;;;0.61;100.00;99623.72;5072745;28;20127;-69
2023/03/07 09:01:01;;;;;;;34.15;20.23;;;;;;;0.59;100.00;99617.59;5067859;28;20043;-68
2023/03/07 09:03:26;;;;;;;32.45;19.00;;;;;;;0.45;100.00;99617.25;5073657;28;20092;-69
2023/03/07 09:05:51;;;;;;;30.90;18.00;;;;;;;0.40;100.00;99622.31;5073984;28;20039;-69
2023/03/07 09:08:17;;;;;;;31.60;17.30;;;;;;;0.49;100.00;99621.69;5073625;28;20037;-69
2023/03/07 09:10:43;;;;;;;30.65;17.60;;;;;;;0.39;100.00;99620.56;5073596;28;20032;-69
2023/03/07 09:13:08;;;;;;;31.52;17.20;;;;;;;0.50;100.00;99623.44;5074088;28;20104;-69
2023/03/07 09:15:33;;;;;;;30.92;17.23;;;;;;;0.63;100.00;99620.31;5073560;28;20431;-69
2023/03/07 09:17:59;;;;;;;29.75;16.27;;;;;;;0.61;100.00;99632.41;5073548;28;20029;-69
2023/03/07 09:20:24;;;;;;;30.00;15.98;;;;;;;0.64;100.00;99627.28;5073916;28;20056;-69
2023/03/07 09:22:50;;;;;;;27.02;13.52;;;;;;;0.55;100.00;99629.63;5073432;28;20035;-69
2023/03/07 09:25:17;;;;;;;24.73;11.93;;;;;;;0.44;100.00;99636.31;5073331;28;20048;-69
2023/03/07 09:27:44;;;;;;;25.52;11.98;;;;;;;0.40;100.00;99643.13;5073540;28;20028;-69
2023/03/07 09:30:10;;;;;;;24.95;11.40;;;;;;;0.36;100.00;99641.28;5073250;28;20044;-68
2023/03/07 09:32:36;;;;;;;26.63;12.70;;;;;;;0.34;100.00;99645.56;5073240;28;20382;-69
2023/03/07 09:35:01;;;;;;;26.13;13.10;;;;;;;0.38;100.00;99654.31;5073403;28;20119;-68
2023/03/07 09:37:27;;;;;;;27.10;13.48;;;;;;;0.27;100.00;99651.44;5073117;28;20128;-68
2023/03/07 09:39:52;;;;;;;27.30;12.85;;;;;;;0.40;100.00;99652.66;5073384;28;20037;-68
2023/03/07 09:42:26;;;;;;;27.20;13.48;;;;;;;0.48;100.00;99648.53;5073042;28;20081;-69
2023/03/07 09:45:10;;;;;;;26.83;13.65;;;;;;;0.43;100.00;99651.00;5072857;28;20089;-69
2023/03/07 09:47:44;;;;;;;26.85;12.80;;;;;;;0.50;100.00;99644.25;5072985;28;20064;-69
2023/03/07 09:50:48;;;;;;;26.65;13.02;;;;;;;0.61;100.00;99650.63;5075518;28;20028;-69
2023/03/07 09:53:36;;;;;;;24.92;11.65;;;;;;;0.44;100.00;99641.50;5075333;28;20086;-68
2023/03/07 09:56:07;;;;;;;24.50;11.07;;;;;;;0.57;100.00;99650.47;5082936;28;20024;-69
2023/03/07 09:58:35;;;;;;;26.00;11.80;;;;;;;0.80;100.00;99643.25;5078740;28;20032;-68
2023/03/07 10:01:01;;;;;;;26.05;11.63;;;;;;;0.77;100.00;99648.38;5078870;28;20028;-68
2023/03/07 10:04:03;;;;;;;25.48;11.95;;;;;;;0.71;100.00;99650.84;5080968;28;20051;-69
2023/03/07 10:06:36;;;;;;;25.33;11.88;;;;;;;0.58;100.00;99640.09;5076739;28;20039;-68
2023/03/07 10:09:04;;;;;;;26.02;12.52;;;;;;;0.59;100.00;99639.28;5074588;28;20035;-69
2023/03/07 10:12:00;;;;;;;26.65;13.13;;;;;;;0.63;100.00;99635.91;5070100;28;20025;-69
2023/03/07 10:14:34;;;;;;;27.75;14.77;;;;;;;0.62;100.00;99633.28;5041776;28;20479;-71
2023/03/07 10:17:37;;;;;;;28.90;15.52;;;;;;;0.59;100.00;99643.63;5067477;28;20537;-68
2023/03/07 10:20:16;;;;;;;29.10;15.52;;;;;;;0.63;100.00;99641.13;5069745;28;20646;-68
2023/03/07 10:22:56;;;;;;;28.33;15.32;;;;;;;0.51;100.00;99636.50;5068519;28;20467;-68
2023/03/07 10:25:55;;;;;;;28.33;14.40;;;;;;;0.48;100.00;99640.72;5071669;28;20216;-68
2023/03/07 10:28:31;;;;;;;29.70;15.90;;;;;;;0.51;100.00;99641.69;5069019;28;20089;-68
2023/03/07 10:31:01;;;;;;;30.23;15.45;;;;;;;0.51;100.00;99646.91;5066504;28;20103;-68
2023/03/07 10:33:29;;;;;;;29.88;15.70;;;;;;;0.56;100.00;99644.41;5072463;28;20360;-68
2023/03/07 10:36:11;;;;;;;31.15;15.10;;;;;;;0.63;100.00;99640.25;5069545;28;20060;-68
2023/03/07 10:39:12;;;;;;;30.15;14.98;;;;;;;0.68;100.00;99647.34;5069256;28;20050;-68
2023/03/07 10:41:37;;;;;;;31.55;15.93;;;;;;;0.65;100.00;99636.81;5064871;28;20020;-67
2023/03/07 10:44:03;;;;;;;33.20;16.88;;;;;;;0.78;100.00;99635.41;5069274;28;20035;-68
2023/03/07 10:46:29;;;;;;;30.98;15.25;;;;;;;0.84;100.00;99639.88;5067193;28;20072;-68
2023/03/07 10:49:06;;;;;;;30.05;14.80;;;;;;;0.75;100.00;99643.16;5063721;28;20463;-67
2023/03/07 10:51:50;;;;;;;29.00;14.10;;;;;;;0.83;100.00;99639.03;5069804;28;20036;-68
2023/03/07 10:54:32;;;;;;;25.88;12.07;;;;;;;0.77;100.00;99643.19;5072137;28;20028;-68
2023/03/07 10:57:17;;;;;;;26.40;12.33;;;;;;;0.78;100.00;99642.34;5069019;28;20032;-69
2023/03/07 10:59:47;;;;;;;27.58;12.10;;;;;;;0.75;100.00;99647.47;5072066;28;20031;-68
2023/03/07 11:02:30;;;;;;;26.30;11.27;;;;;;;0.76;100.00;99651.81;5072558;28;20501;-68
2023/03/07 11:04:56;;;;;;;26.02;10.63;;;;;;;0.81;100.00;99647.63;5068962;28;20118;-68
2023/03/07 11:07:27;;;;;;;25.58;10.75;;;;;;;0.74;100.00;99648.31;5072319;28;20637;-68
2023/03/07 11:09:53;;;;;;;25.70;10.93;;;;;;;0.90;100.00;99645.25;5068189;28;20058;-68
2023/03/07 11:12:20;;;;;;;24.73;10.48;;;;;;;0.94;100.00;99651.41;5072319;28;20391;-68
2023/03/07 11:14:47;;;;;;;24.88;10.93;;;;;;;1.03;100.00;99649.03;5071993;28;20028;-68
2023/03/07 11:17:42;;;;;;;26.33;11.40;;;;;;;1.11;100.00;99649.22;5072077;28;20083;-68
2023/03/07 11:20:27;;;;;;;25.50;10.80;;;;;;;1.13;100.00;99652.72;5074292;28;20016;-69
2023/03/07 11:23:18;;;;;;;25.25;10.48;;;;;;;1.09;100.00;99643.09;5071898;28;20024;-69
2023/03/07 11:25:44;;;;;;;25.13;10.38;;;;;;;1.18;100.00;99645.88;5074745;28;20032;-69